createdAt,value
2023-03-08T00:11:07.510Z,12.70
2023-03-08T00:16:37.640Z,11.80
2023-03-08T00:27:09.916Z,7.70
2023-03-08T00:38:09.780Z,6.60
2023-03-08T00:49:09.658Z,10.20
2023-03-08T01:00:09.564Z,9.20
2023-03-08T01:11:09.460Z,15.60
2023-03-08T01:22:09.316Z,10.30
2023-03-08T01:33:09.175Z,6.20
2023-03-08T01:44:09.045Z,7.00
2023-03-08T01:55:08.925Z,7.40
2023-03-08T02:06:08.839Z,7.70
2023-03-08T02:17:08.692Z,8.70
2023-03-08T02:28:08.606Z,12.20
2023-03-08T02:39:08.442Z,9.50
2023-03-08T02:50:08.346Z,7.30
2023-03-08T03:01:08.252Z,11.30
2023-03-08T03:12:08.110Z,8.50
2023-03-08T03:23:07.956Z,13.70
2023-03-08T03:34:07.862Z,15.50
2023-03-08T03:45:07.697Z,10.40
2023-03-08T03:56:07.581Z,15.00
2023-03-08T04:07:07.478Z,10.10
2023-03-08T04:18:07.366Z,10.60
2023-03-08T04:29:07.236Z,9.30
2023-03-08T04:40:07.151Z,14.00
2023-03-08T04:51:06.980Z,9.90
2023-03-08T05:02:06.916Z,16.80
2023-03-08T05:13:06.744Z,10.40
2023-03-08T05:24:06.619Z,14.00
2023-03-08T05:35:06.487Z,16.30
2023-03-08T05:46:06.466Z,11.60
2023-03-08T05:57:06.240Z,12.40
2023-03-08T06:08:06.108Z,10.50
2023-03-08T06:19:05.979Z,16.00
2023-03-08T06:30:05.900Z,15.40
2023-03-08T06:41:05.751Z,12.60
2023-03-08T06:52:05.621Z,12.30
2023-03-08T07:03:05.512Z,12.70
2023-03-08T07:14:05.374Z,14.50
2023-03-08T07:25:05.263Z,4.30
2023-03-08T07:36:05.188Z,15.30
2023-03-08T07:47:05.015Z,12.90
2023-03-08T07:58:04.888Z,15.20
2023-03-08T08:09:04.764Z,12.40
2023-03-08T08:20:04.705Z,26.80
2023-03-08T08:31:04.556Z,12.90
2023-03-08T08:42:04.399Z,12.60
2023-03-08T08:53:04.373Z,19.20
2023-03-08T09:04:04.252Z,12.20
2023-03-08T09:15:04.151Z,11.00
2023-03-08T09:26:03.926Z,11.60
2023-03-08T09:37:03.803Z,18.70
2023-03-08T09:48:03.715Z,10.70
2023-03-08T09:59:03.672Z,12.60
2023-03-08T10:10:03.428Z,19.50
2023-03-08T10:21:03.308Z,15.00
2023-03-08T10:32:03.214Z,9.30
2023-03-08T10:43:03.073Z,11.80
2023-03-08T10:54:03.021Z,13.40
2023-03-08T11:05:02.897Z,11.90
2023-03-08T11:16:02.716Z,14.70
2023-03-08T11:27:02.609Z,8.80
2023-03-08T11:38:02.494Z,13.60
2023-03-08T11:49:02.434Z,10.00
2023-03-08T12:00:02.206Z,13.10
2023-03-08T12:11:02.125Z,9.40
2023-03-08T12:22:02.020Z,12.20
2023-03-08T12:33:02.081Z,10.30
2023-03-08T12:44:01.737Z,12.20
2023-03-08T12:55:01.608Z,12.70
2023-03-08T13:06:01.475Z,8.00
2023-03-08T13:17:01.487Z,12.10
2023-03-08T13:28:01.338Z,9.80
2023-03-08T13:39:01.151Z,7.10
2023-03-08T13:50:00.998Z,7.80
2023-03-08T14:01:02.254Z,3.90
2023-03-08T14:12:00.827Z,7.20
2023-03-08T14:23:00.653Z,1.60
2023-03-08T14:34:00.506Z,1.70
2023-03-08T14:45:00.536Z,1.60
2023-03-08T14:56:00.241Z,1.30
2023-03-08T15:07:00.216Z,5.40
2023-03-08T15:17:59.993Z,1.00
2023-03-08T15:28:59.871Z,1.10
2023-03-08T15:39:59.785Z,1.30
2023-03-08T15:50:59.627Z,5.40
2023-03-08T16:01:59.559Z,1.30
2023-03-08T16:12:59.378Z,1.20
2023-03-08T16:23:59.273Z,1.10
2023-03-08T16:34:59.182Z,2.40
2023-03-08T16:45:59.117Z,1.90
2023-03-08T16:57:04.780Z,1.10
2023-03-08T17:07:58.787Z,2.60
2023-03-08T17:18:58.919Z,3.20
2023-03-08T17:29:58.517Z,9.90
2023-03-08T17:40:58.402Z,4.70
2023-03-08T17:51:58.320Z,5.70
2023-03-08T18:02:58.152Z,1.00
2023-03-08T18:13:58.033Z,2.00
2023-03-08T18:24:57.925Z,1.50
2023-03-08T18:35:57.903Z,12.00
2023-03-08T18:46:57.722Z,4.00
2023-03-08T18:57:57.585Z,3.50
2023-03-08T19:08:57.440Z,8.00
2023-03-08T19:19:57.294Z,4.10
2023-03-08T19:30:57.319Z,2.80
2023-03-08T19:41:57.105Z,2.40
2023-03-08T19:52:56.943Z,1.50
2023-03-08T20:03:56.818Z,2.10
2023-03-08T20:14:56.688Z,3.90
2023-03-08T20:25:56.559Z,3.30
2023-03-08T20:36:56.482Z,3.20
2023-03-08T20:47:56.344Z,3.70
2023-03-08T20:58:56.208Z,4.80
2023-03-08T21:09:56.080Z,3.60
2023-03-08T21:20:55.952Z,3.90
2023-03-08T21:31:55.831Z,3.70
2023-03-08T21:42:55.850Z,2.00
2023-03-08T21:53:55.592Z,3.00
2023-03-08T22:04:55.462Z,2.10
2023-03-08T22:15:55.394Z,2.70
2023-03-08T22:26:55.236Z,3.00
2023-03-08T22:37:55.084Z,2.30
2023-03-08T22:48:54.961Z,3.90
2023-03-08T22:59:54.848Z,2.90
2023-03-08T23:10:54.730Z,1.60
2023-03-08T23:21:54.590Z,1.60
2023-03-08T23:32:54.469Z,6.00
2023-03-08T23:43:54.362Z,1.30
2023-03-08T23:54:54.230Z,1.60
